createdAt,value
2019-03-26T00:01:23.889Z,78.61
2019-03-26T00:02:23.915Z,79.08
2019-03-26T00:04:26.025Z,78.89
2019-03-26T00:05:26.020Z,78.99
2019-03-26T00:07:28.049Z,79.36
2019-03-26T00:08:28.077Z,79.55
2019-03-26T00:10:30.117Z,79.55
2019-03-26T00:11:30.126Z,79.55
2019-03-26T00:13:32.316Z,79.65
2019-03-26T00:14:32.334Z,79.65
2019-03-26T00:16:34.415Z,79.36
2019-03-26T00:17:34.440Z,79.52
2019-03-26T00:19:36.516Z,79.36
2019-03-26T00:20:36.518Z,79.90
2019-03-26T00:22:38.542Z,79.99
2019-03-26T00:23:38.564Z,79.74
2019-03-26T00:25:40.729Z,79.99
2019-03-26T00:26:40.737Z,80.22
2019-03-26T00:28:42.976Z,80.18
2019-03-26T00:29:43.001Z,80.08
2019-03-26T00:31:34.992Z,80.56
2019-03-26T00:32:35.017Z,80.65
2019-03-26T00:34:37.126Z,79.90
2019-03-26T00:35:37.131Z,80.27
2019-03-26T00:37:39.135Z,80.56
2019-03-26T00:38:39.192Z,80.75
2019-03-26T00:40:41.239Z,80.65
2019-03-26T00:41:41.246Z,80.84
2019-03-26T00:43:43.393Z,80.46
2019-03-26T00:44:43.416Z,80.75
2019-03-26T00:46:45.535Z,80.46
2019-03-26T00:47:45.559Z,80.65
2019-03-26T00:48:45.588Z,81.13
2019-03-26T00:49:45.615Z,81.13
2019-03-26T00:50:45.644Z,81.13
2019-03-26T00:51:45.671Z,80.84
2019-03-26T00:52:45.701Z,81.32
2019-03-26T00:53:45.725Z,81.32
2019-03-26T00:54:45.755Z,81.32
2019-03-26T00:55:45.783Z,81.32
2019-03-26T00:56:45.810Z,81.32
2019-03-26T00:57:45.838Z,81.13
2019-03-26T00:58:45.868Z,81.51
2019-03-26T00:59:45.897Z,81.60
2019-03-26T01:00:45.926Z,81.51
2019-03-26T01:01:45.951Z,81.79
2019-03-26T01:02:45.977Z,81.51
2019-03-26T01:03:46.008Z,81.60
2019-03-26T01:04:46.034Z,81.60
2019-03-26T01:05:46.061Z,81.70
2019-03-26T01:06:46.088Z,81.70
2019-03-26T01:07:46.117Z,81.79
2019-03-26T01:08:46.145Z,82.17
2019-03-26T01:09:46.174Z,81.88
2019-03-26T01:10:53.387Z,82.08
2019-03-26T01:12:50.225Z,81.98
2019-03-26T01:13:50.246Z,82.36
2019-03-26T01:15:54.273Z,82.17
2019-03-26T01:16:54.297Z,82.08
2019-03-26T01:18:58.315Z,82.32
2019-03-26T01:19:58.340Z,82.23
2019-03-26T01:21:51.285Z,82.70
2019-03-26T01:22:51.315Z,82.23
2019-03-26T01:24:55.343Z,82.70
2019-03-26T01:25:55.350Z,82.60
2019-03-26T01:27:59.373Z,82.70
2019-03-26T01:28:59.392Z,82.98
2019-03-26T01:31:03.438Z,83.17
2019-03-26T01:32:03.450Z,83.36
2019-03-26T01:34:07.466Z,83.08
2019-03-26T01:35:07.489Z,83.17
2019-03-26T01:37:11.516Z,83.65
2019-03-26T01:38:11.533Z,83.74
2019-03-26T01:40:15.570Z,83.84
2019-03-26T01:41:15.574Z,83.94
2019-03-26T01:43:19.636Z,83.84
2019-03-26T01:44:19.657Z,83.84
2019-03-26T01:46:23.705Z,83.94
2019-03-26T01:47:23.715Z,84.03
2019-03-26T01:49:27.745Z,84.03
2019-03-26T01:50:27.756Z,84.12
2019-03-26T01:52:31.777Z,84.31
2019-03-26T01:53:31.800Z,84.22
2019-03-26T01:55:35.837Z,84.69
2019-03-26T01:56:35.847Z,84.22
2019-03-26T01:58:39.860Z,84.59
2019-03-26T01:59:39.884Z,84.41
2019-03-26T02:01:32.848Z,84.69
2019-03-26T02:02:32.854Z,84.22
2019-03-26T02:04:36.876Z,84.69
2019-03-26T02:05:36.893Z,84.12
2019-03-26T02:07:40.912Z,84.31
2019-03-26T02:08:40.936Z,84.41
2019-03-26T02:10:44.970Z,84.59
2019-03-26T02:11:44.974Z,84.69
2019-03-26T02:13:48.993Z,84.98
2019-03-26T02:14:49.016Z,85.36
2019-03-26T02:16:53.052Z,85.22
2019-03-26T02:17:53.059Z,85.60
2019-03-26T02:19:57.077Z,86.68
2019-03-26T02:20:57.098Z,86.07
2019-03-26T02:23:01.126Z,86.07
2019-03-26T02:24:01.153Z,86.55
2019-03-26T02:26:05.181Z,86.64
2019-03-26T02:27:05.189Z,87.40
2019-03-26T02:29:09.208Z,87.21
2019-03-26T02:30:09.229Z,87.21
2019-03-26T02:32:13.250Z,87.02
2019-03-26T02:33:13.278Z,87.21
2019-03-26T02:35:18.961Z,87.02
2019-03-26T02:36:17.310Z,87.21
2019-03-26T02:38:21.339Z,87.02
2019-03-26T02:39:21.362Z,87.02
2019-03-26T02:41:14.318Z,87.12
2019-03-26T02:42:14.325Z,87.30
2019-03-26T02:44:18.346Z,86.93
2019-03-26T02:45:18.368Z,87.12
2019-03-26T02:47:22.387Z,87.30
2019-03-26T02:48:22.411Z,87.68
2019-03-26T02:50:26.425Z,86.83
2019-03-26T02:51:26.448Z,87.02
2019-03-26T02:53:30.491Z,87.49
2019-03-26T02:54:30.486Z,88.25
2019-03-26T02:56:34.525Z,87.77
2019-03-26T02:57:34.527Z,88.16
2019-03-26T02:59:38.549Z,87.87
2019-03-26T03:00:38.570Z,88.06
2019-03-26T03:02:42.589Z,88.16
2019-03-26T03:03:42.610Z,88.16
2019-03-26T03:05:46.627Z,88.16
2019-03-26T03:06:46.650Z,88.16
2019-03-26T03:08:50.668Z,88.25
2019-03-26T03:09:50.689Z,88.25
2019-03-26T03:11:43.645Z,88.06
2019-03-26T03:12:43.653Z,87.77
2019-03-26T03:14:47.672Z,87.68
2019-03-26T03:15:47.695Z,87.59
2019-03-26T03:17:51.730Z,87.59
2019-03-26T03:18:51.733Z,87.40
2019-03-26T03:20:55.777Z,87.49
2019-03-26T03:21:55.782Z,87.40
2019-03-26T03:23:59.799Z,86.83
2019-03-26T03:24:59.823Z,87.16
2019-03-26T03:27:03.876Z,87.16
2019-03-26T03:28:03.877Z,87.25
2019-03-26T03:30:07.884Z,87.16
2019-03-26T03:31:07.899Z,87.45
2019-03-26T03:33:11.925Z,87.35
2019-03-26T03:34:11.938Z,87.06
2019-03-26T03:36:15.982Z,87.06
2019-03-26T03:37:15.979Z,86.97
2019-03-26T03:39:19.998Z,86.83
2019-03-26T03:40:20.021Z,87.40
2019-03-26T03:42:24.051Z,87.87
2019-03-26T03:43:24.059Z,87.77
2019-03-26T03:45:28.086Z,87.49
2019-03-26T03:46:28.098Z,87.77
2019-03-26T03:48:32.115Z,87.40
2019-03-26T03:49:32.140Z,87.87
2019-03-26T03:51:25.094Z,87.30
2019-03-26T03:52:25.103Z,87.16
2019-03-26T03:54:37.958Z,87.16
2019-03-26T03:55:29.140Z,87.16
2019-03-26T03:57:33.176Z,86.59
2019-03-26T03:58:33.182Z,86.87
2019-03-26T04:00:37.195Z,86.30
2019-03-26T04:01:37.219Z,86.68
2019-03-26T04:03:41.245Z,86.78
2019-03-26T04:04:41.264Z,86.87
2019-03-26T04:06:45.306Z,86.87
2019-03-26T04:07:45.302Z,86.78
2019-03-26T04:09:49.320Z,86.59
2019-03-26T04:10:49.342Z,86.30
2019-03-26T04:12:53.377Z,86.68
2019-03-26T04:13:53.393Z,86.59
2019-03-26T04:15:57.407Z,86.30
2019-03-26T04:16:57.450Z,86.30
2019-03-26T04:19:01.444Z,86.40
2019-03-26T04:20:01.471Z,86.30
2019-03-26T04:21:54.426Z,86.02
2019-03-26T04:22:54.429Z,86.40
2019-03-26T04:24:58.449Z,86.78
2019-03-26T04:25:58.469Z,86.30
2019-03-26T04:28:02.529Z,86.68
2019-03-26T04:29:02.508Z,86.68
2019-03-26T04:31:06.562Z,86.59
2019-03-26T04:32:06.547Z,86.87
2019-03-26T04:34:10.568Z,86.45
2019-03-26T04:35:10.590Z,87.40
2019-03-26T04:37:14.610Z,87.12
2019-03-26T04:38:14.628Z,87.21
2019-03-26T04:40:18.650Z,87.30
2019-03-26T04:41:18.674Z,86.83
2019-03-26T04:43:22.711Z,87.40
2019-03-26T04:44:22.710Z,87.30
2019-03-26T04:46:34.723Z,87.21
2019-03-26T04:47:26.765Z,87.77
2019-03-26T04:49:30.769Z,87.49
2019-03-26T04:50:30.794Z,87.49
2019-03-26T04:52:34.829Z,87.68
2019-03-26T04:53:34.834Z,87.54
2019-03-26T04:55:38.852Z,87.97
2019-03-26T04:56:38.872Z,88.82
2019-03-26T04:58:44.070Z,88.06
2019-03-26T04:59:42.914Z,88.73
2019-03-26T05:01:35.855Z,88.73
2019-03-26T05:02:35.880Z,88.35
2019-03-26T05:04:39.896Z,88.16
2019-03-26T05:05:39.918Z,88.16
2019-03-26T05:07:43.947Z,88.54
2019-03-26T05:08:43.972Z,88.77
2019-03-26T05:10:56.836Z,88.77
2019-03-26T05:11:48.013Z,88.58
2019-03-26T05:13:52.045Z,88.48
2019-03-26T05:14:52.051Z,89.20
2019-03-26T05:16:56.107Z,88.39
2019-03-26T05:17:56.791Z,88.39
2019-03-26T05:20:00.146Z,89.25
2019-03-26T05:21:00.129Z,88.96
2019-03-26T05:23:04.146Z,89.20
2019-03-26T05:24:04.166Z,88.92
2019-03-26T05:26:08.185Z,89.77
2019-03-26T05:27:08.208Z,89.58
2019-03-26T05:29:12.251Z,90.24
2019-03-26T05:30:12.250Z,90.72
2019-03-26T05:32:16.307Z,90.24
2019-03-26T05:33:16.290Z,90.53
2019-03-26T05:35:20.310Z,90.34
2019-03-26T05:36:20.331Z,90.15
2019-03-26T05:38:24.352Z,90.38
2019-03-26T05:39:24.370Z,90.34
2019-03-26T05:41:17.311Z,90.43
2019-03-26T05:42:17.330Z,90.91
2019-03-26T05:44:21.400Z,91.00
2019-03-26T05:45:21.371Z,91.19
2019-03-26T05:47:25.410Z,91.95
2019-03-26T05:48:25.414Z,91.28
2019-03-26T05:50:29.435Z,91.85
2019-03-26T05:51:29.458Z,91.95
2019-03-26T05:53:33.478Z,91.76
2019-03-26T05:54:33.502Z,91.57
2019-03-26T05:56:37.519Z,91.28
2019-03-26T05:57:37.541Z,91.19
2019-03-26T05:59:41.574Z,90.81
2019-03-26T06:00:41.579Z,91.00
2019-03-26T06:02:45.621Z,90.57
2019-03-26T06:03:45.622Z,90.10
2019-03-26T06:05:49.639Z,89.53
2019-03-26T06:06:49.661Z,89.34
2019-03-26T06:08:53.704Z,89.06
2019-03-26T06:09:53.704Z,88.48
2019-03-26T06:11:46.646Z,88.96
2019-03-26T06:12:46.666Z,88.58
2019-03-26T06:14:50.684Z,88.48
2019-03-26T06:15:50.707Z,88.20
2019-03-26T06:17:57.408Z,87.45
2019-03-26T06:18:54.747Z,87.25
2019-03-26T06:20:58.766Z,87.45
2019-03-26T06:21:58.789Z,88.77
2019-03-26T06:24:02.808Z,91.05
2019-03-26T06:25:02.831Z,89.67
2019-03-26T06:27:06.892Z,88.62
2019-03-26T06:28:06.935Z,89.00
2019-03-26T06:30:10.953Z,87.39
2019-03-26T06:31:10.953Z,85.97
2019-03-26T06:33:14.995Z,85.16
2019-03-26T06:34:15.000Z,83.83
2019-03-26T06:36:19.021Z,82.78
2019-03-26T06:37:19.043Z,83.07
2019-03-26T06:39:23.085Z,82.21
2019-03-26T06:40:23.086Z,82.40
2019-03-26T06:42:27.106Z,82.12
2019-03-26T06:43:27.132Z,82.03
2019-03-26T06:45:31.217Z,81.36
2019-03-26T06:46:31.227Z,81.74
2019-03-26T06:48:35.258Z,81.45
2019-03-26T06:49:35.263Z,81.65
2019-03-26T06:51:28.216Z,81.74
2019-03-26T06:52:28.241Z,81.36
2019-03-26T06:54:32.249Z,81.26
2019-03-26T06:55:32.338Z,81.26
2019-03-26T06:57:36.300Z,80.88
2019-03-26T06:58:36.398Z,81.36
2019-03-26T07:00:40.365Z,80.88
2019-03-26T07:01:40.357Z,80.98
2019-03-26T07:03:44.392Z,80.41
2019-03-26T07:04:44.396Z,80.79
2019-03-26T07:06:48.421Z,80.51
2019-03-26T07:07:48.447Z,80.51
2019-03-26T07:09:52.467Z,80.60
2019-03-26T07:10:59.648Z,80.98
2019-03-26T07:12:56.532Z,80.41
2019-03-26T07:13:56.535Z,80.60
2019-03-26T07:16:00.562Z,80.51
2019-03-26T07:17:00.576Z,80.32
2019-03-26T07:19:04.602Z,80.41
2019-03-26T07:20:04.688Z,80.69
2019-03-26T07:21:57.571Z,80.69
2019-03-26T07:22:57.593Z,80.79
2019-03-26T07:25:01.637Z,80.79
2019-03-26T07:26:01.638Z,80.51
2019-03-26T07:28:05.662Z,80.13
2019-03-26T07:29:05.681Z,80.03
2019-03-26T07:31:09.702Z,79.65
2019-03-26T07:32:09.732Z,78.99
2019-03-26T07:34:13.748Z,79.27
2019-03-26T07:35:13.767Z,79.12
2019-03-26T07:37:17.791Z,78.08
2019-03-26T07:38:17.814Z,77.79
2019-03-26T07:40:19.822Z,77.79
2019-03-26T07:41:19.844Z,77.60
2019-03-26T07:43:21.992Z,77.31
2019-03-26T07:44:22.019Z,77.12
2019-03-26T07:46:24.044Z,77.03
2019-03-26T07:47:24.065Z,76.37
2019-03-26T07:49:26.118Z,75.93
2019-03-26T07:50:26.097Z,76.03
2019-03-26T07:52:28.131Z,76.03
2019-03-26T07:53:28.150Z,76.21
2019-03-26T07:55:30.213Z,75.93
2019-03-26T07:56:30.239Z,75.64
2019-03-26T07:58:33.393Z,75.64
2019-03-26T07:59:32.262Z,75.84
2019-03-26T08:01:25.207Z,75.74
2019-03-26T08:02:25.229Z,75.55
2019-03-26T08:04:27.411Z,74.92
2019-03-26T08:05:29.874Z,74.69
2019-03-26T08:07:29.438Z,74.26
2019-03-26T08:08:29.461Z,74.35
2019-03-26T08:10:31.583Z,73.59
2019-03-26T08:11:31.610Z,73.78
2019-03-26T08:13:33.787Z,73.59
2019-03-26T08:14:33.769Z,73.49
2019-03-26T08:16:35.770Z,73.59
2019-03-26T08:17:35.812Z,73.21
2019-03-26T08:19:27.961Z,72.92
2019-03-26T08:20:27.960Z,73.21
2019-03-26T08:22:30.233Z,71.97
2019-03-26T08:23:30.043Z,71.78
2019-03-26T08:24:30.074Z,72.35
2019-03-26T08:25:30.102Z,72.26
2019-03-26T08:26:30.128Z,71.59
2019-03-26T08:27:30.156Z,71.69
2019-03-26T08:28:30.189Z,72.55
2019-03-26T08:29:30.217Z,71.12
2019-03-26T08:30:30.242Z,71.22
2019-03-26T08:31:30.272Z,71.44
2019-03-26T08:32:30.301Z,71.15
2019-03-26T08:33:30.331Z,71.44
2019-03-26T08:34:30.359Z,71.25
2019-03-26T08:35:30.388Z,70.68
2019-03-26T08:36:30.418Z,69.44
2019-03-26T08:37:30.452Z,69.25
2019-03-26T08:38:33.418Z,69.44
2019-03-26T08:39:30.509Z,69.82
2019-03-26T08:40:30.533Z,69.25
2019-03-26T08:41:30.564Z,69.88
2019-03-26T08:42:30.592Z,69.98
2019-03-26T08:43:30.621Z,69.41
2019-03-26T08:44:30.652Z,69.50
2019-03-26T08:45:30.757Z,69.88
2019-03-26T08:46:30.709Z,69.88
2019-03-26T08:47:30.738Z,69.50
2019-03-26T08:48:30.767Z,69.12
2019-03-26T08:49:31.141Z,69.69
2019-03-26T08:50:30.823Z,69.79
2019-03-26T08:51:30.854Z,70.07
2019-03-26T08:52:30.883Z,68.65
2019-03-26T08:53:30.914Z,69.02
2019-03-26T08:54:30.941Z,68.27
2019-03-26T08:55:30.973Z,68.55
2019-03-26T08:56:31.008Z,68.07
2019-03-26T08:57:31.028Z,68.27
2019-03-26T08:58:31.058Z,68.46
2019-03-26T08:59:31.087Z,67.69
2019-03-26T09:00:32.199Z,67.25
2019-03-26T09:01:31.146Z,67.88
2019-03-26T09:02:31.207Z,67.44
2019-03-26T09:03:31.206Z,67.54
2019-03-26T09:04:31.234Z,68.21
2019-03-26T09:05:31.267Z,67.44
2019-03-26T09:06:31.291Z,67.63
2019-03-26T09:07:31.324Z,66.87
2019-03-26T09:08:31.353Z,66.39
2019-03-26T09:09:31.380Z,66.78
2019-03-26T09:10:31.418Z,67.25
2019-03-26T09:11:31.438Z,66.78
2019-03-26T09:12:31.470Z,65.95
2019-03-26T09:13:31.499Z,65.86
2019-03-26T09:14:31.525Z,65.29
2019-03-26T09:15:31.556Z,65.29
2019-03-26T09:16:31.590Z,64.81
2019-03-26T09:17:31.613Z,64.53
2019-03-26T09:18:31.641Z,64.24
2019-03-26T09:19:31.671Z,63.76
2019-03-26T09:20:31.702Z,64.43
2019-03-26T09:21:32.779Z,63.73
2019-03-26T09:22:31.760Z,63.76
2019-03-26T09:23:31.790Z,64.34
2019-03-26T09:24:31.818Z,63.57
2019-03-26T09:25:31.860Z,64.31
2019-03-26T09:26:31.878Z,64.02
2019-03-26T09:27:31.912Z,64.02
2019-03-26T09:28:31.944Z,64.11
2019-03-26T09:29:31.970Z,64.40
2019-03-26T09:30:31.997Z,65.19
2019-03-26T09:31:32.026Z,63.96
2019-03-26T09:32:32.057Z,63.96
2019-03-26T09:33:32.088Z,63.20
2019-03-26T09:34:32.115Z,63.39
2019-03-26T09:35:32.145Z,62.62
2019-03-26T09:36:32.181Z,62.62
2019-03-26T09:37:32.205Z,62.81
2019-03-26T09:38:38.797Z,62.43
2019-03-26T09:39:32.262Z,61.96
2019-03-26T09:40:32.293Z,62.15
2019-03-26T09:41:32.323Z,62.30
2019-03-26T09:42:32.352Z,62.88
2019-03-26T09:43:32.381Z,62.81
2019-03-26T09:44:32.416Z,63.57
2019-03-26T09:45:32.446Z,63.67
2019-03-26T09:46:32.470Z,63.35
2019-03-26T09:47:32.498Z,63.73
2019-03-26T09:48:32.531Z,63.83
2019-03-26T09:49:32.561Z,64.02
2019-03-26T09:50:32.601Z,64.21
2019-03-26T09:51:32.618Z,63.92
2019-03-26T09:52:32.656Z,64.50
2019-03-26T09:53:32.684Z,64.69
2019-03-26T09:54:32.707Z,65.16
2019-03-26T09:55:32.736Z,65.29
2019-03-26T09:56:32.766Z,65.10
2019-03-26T09:57:32.800Z,65.10
2019-03-26T09:58:32.827Z,65.10
2019-03-26T09:59:32.856Z,65.67
2019-03-26T10:00:32.938Z,65.58
2019-03-26T10:01:32.920Z,65.67
2019-03-26T10:02:32.942Z,66.78
2019-03-26T10:03:32.974Z,67.16
2019-03-26T10:04:33.004Z,67.25
2019-03-26T10:05:33.102Z,66.72
2019-03-26T10:06:33.067Z,66.81
2019-03-26T10:07:33.092Z,66.81
2019-03-26T10:08:33.122Z,66.62
2019-03-26T10:09:33.153Z,66.53
2019-03-26T10:10:33.182Z,66.24
2019-03-26T10:11:33.210Z,66.43
2019-03-26T10:12:33.245Z,66.05
2019-03-26T10:13:36.231Z,65.38
2019-03-26T10:14:33.301Z,65.10
2019-03-26T10:15:33.336Z,65.19
2019-03-26T10:16:33.359Z,65.77
2019-03-26T10:17:33.388Z,66.05
2019-03-26T10:18:33.416Z,65.48
2019-03-26T10:19:33.451Z,65.86
2019-03-26T10:20:33.477Z,65.58
2019-03-26T10:21:33.513Z,66.43
2019-03-26T10:22:33.539Z,66.33
2019-03-26T10:23:33.566Z,66.39
2019-03-26T10:24:33.606Z,66.39
2019-03-26T10:25:33.626Z,66.59
2019-03-26T10:26:33.657Z,66.59
2019-03-26T10:27:35.077Z,66.91
2019-03-26T10:28:33.717Z,67.00
2019-03-26T10:29:33.747Z,67.10
2019-03-26T10:30:33.774Z,66.72
2019-03-26T10:31:33.806Z,66.05
2019-03-26T10:32:33.846Z,66.24
2019-03-26T10:33:33.863Z,65.77
2019-03-26T10:34:36.423Z,65.10
2019-03-26T10:35:33.924Z,65.58
2019-03-26T10:36:33.954Z,66.24
2019-03-26T10:37:33.982Z,65.95
2019-03-26T10:38:34.016Z,65.86
2019-03-26T10:39:34.046Z,65.95
2019-03-26T10:40:34.075Z,65.58
2019-03-26T10:41:34.107Z,65.58
2019-03-26T10:42:34.132Z,65.58
2019-03-26T10:43:34.165Z,65.86
2019-03-26T10:44:34.192Z,66.53
2019-03-26T10:45:34.224Z,66.62
2019-03-26T10:46:34.250Z,67.10
2019-03-26T10:47:34.280Z,67.29
2019-03-26T10:48:34.311Z,67.38
2019-03-26T10:49:34.342Z,67.47
2019-03-26T10:50:34.372Z,67.38
2019-03-26T10:51:34.399Z,67.95
2019-03-26T10:52:34.640Z,68.15
2019-03-26T10:53:34.459Z,68.52
2019-03-26T10:54:34.489Z,68.81
2019-03-26T10:55:34.518Z,69.00
2019-03-26T10:56:34.550Z,68.62
2019-03-26T10:57:34.594Z,68.81
2019-03-26T10:58:34.609Z,68.33
2019-03-26T10:59:34.642Z,68.52
2019-03-26T11:00:34.670Z,68.05
2019-03-26T11:01:34.697Z,68.15
2019-03-26T11:02:34.731Z,67.51
2019-03-26T11:03:34.758Z,67.70
2019-03-26T11:04:34.789Z,67.89
2019-03-26T11:05:34.817Z,67.41
2019-03-26T11:06:34.847Z,67.03
2019-03-26T11:07:34.879Z,67.32
2019-03-26T11:08:34.909Z,66.94
2019-03-26T11:09:34.945Z,65.70
2019-03-26T11:10:34.968Z,65.70
2019-03-26T11:11:34.999Z,65.80
2019-03-26T11:12:35.027Z,64.94
2019-03-26T11:13:35.058Z,65.51
2019-03-26T11:14:39.037Z,65.51
2019-03-26T11:15:35.122Z,65.13
2019-03-26T11:16:35.148Z,64.84
2019-03-26T11:17:35.178Z,64.47
2019-03-26T11:18:35.212Z,64.37
2019-03-26T11:19:35.241Z,65.03
2019-03-26T11:20:35.268Z,64.75
2019-03-26T11:21:35.299Z,65.13
2019-03-26T11:22:35.328Z,65.03
2019-03-26T11:23:35.358Z,65.03
2019-03-26T11:24:35.389Z,65.23
2019-03-26T11:25:35.422Z,65.13
2019-03-26T11:26:35.448Z,65.03
2019-03-26T11:27:35.481Z,65.03
2019-03-26T11:28:35.511Z,64.94
2019-03-26T11:29:35.600Z,65.00
2019-03-26T11:30:35.568Z,64.84
2019-03-26T11:31:35.598Z,65.10
2019-03-26T11:32:35.632Z,64.81
2019-03-26T11:33:35.660Z,64.62
2019-03-26T11:34:35.689Z,65.19
2019-03-26T11:35:35.720Z,65.29
2019-03-26T11:36:35.748Z,66.24
2019-03-26T11:37:35.779Z,66.62
2019-03-26T11:38:35.809Z,66.81
2019-03-26T11:39:35.839Z,67.38
2019-03-26T11:40:35.870Z,67.76
2019-03-26T11:41:35.900Z,67.95
2019-03-26T11:42:35.928Z,69.00
2019-03-26T11:43:35.958Z,69.44
2019-03-26T11:44:35.987Z,71.25
2019-03-26T11:45:36.019Z,72.20
2019-03-26T11:46:36.047Z,72.49
2019-03-26T11:47:36.077Z,73.15
2019-03-26T11:48:36.108Z,73.72
2019-03-26T11:49:36.138Z,74.10
2019-03-26T11:50:36.166Z,75.05
2019-03-26T11:51:36.195Z,74.77
2019-03-26T11:52:36.227Z,75.62
2019-03-26T11:53:36.257Z,75.72
2019-03-26T11:54:36.288Z,75.81
2019-03-26T11:55:36.316Z,75.91
2019-03-26T11:56:36.345Z,75.91
2019-03-26T11:57:36.375Z,76.10
2019-03-26T11:58:36.405Z,76.29
2019-03-26T11:59:36.434Z,77.24
2019-03-26T12:00:36.467Z,77.24
2019-03-26T12:01:36.495Z,76.96
2019-03-26T12:02:36.681Z,77.43
2019-03-26T12:03:36.555Z,78.00
2019-03-26T12:04:36.583Z,78.19
2019-03-26T12:05:36.613Z,77.81
2019-03-26T12:06:36.645Z,77.43
2019-03-26T12:07:36.673Z,76.48
2019-03-26T12:08:36.703Z,76.01
2019-03-26T12:09:46.253Z,76.67
2019-03-26T12:10:36.762Z,77.43
2019-03-26T12:11:36.791Z,77.15
2019-03-26T12:12:36.820Z,77.81
2019-03-26T12:13:36.855Z,77.05
2019-03-26T12:14:36.881Z,77.34
2019-03-26T12:15:36.911Z,77.24
2019-03-26T12:16:36.941Z,78.04
2019-03-26T12:17:36.970Z,78.14
2019-03-26T12:18:37.001Z,78.23
2019-03-26T12:19:37.028Z,77.72
2019-03-26T12:20:37.060Z,78.33
2019-03-26T12:21:37.088Z,78.90
2019-03-26T12:22:37.119Z,79.57
2019-03-26T12:23:37.149Z,79.66
2019-03-26T12:24:37.178Z,79.75
2019-03-26T12:25:37.216Z,79.09
2019-03-26T12:26:37.238Z,79.19
2019-03-26T12:27:37.269Z,78.52
2019-03-26T12:28:37.298Z,78.52
2019-03-26T12:29:37.329Z,78.61
2019-03-26T12:30:37.358Z,77.76
2019-03-26T12:31:37.385Z,77.76
2019-03-26T12:32:40.634Z,78.61
2019-03-26T12:33:37.447Z,78.90
2019-03-26T12:34:37.476Z,79.38
2019-03-26T12:35:37.507Z,79.09
2019-03-26T12:36:40.085Z,78.37
2019-03-26T12:37:37.571Z,77.70
2019-03-26T12:38:37.597Z,77.32
2019-03-26T12:39:37.627Z,77.07
2019-03-26T12:40:37.659Z,76.21
2019-03-26T12:41:38.687Z,75.55
2019-03-26T12:42:37.715Z,75.01
2019-03-26T12:43:37.830Z,73.68
2019-03-26T12:44:37.779Z,72.82
2019-03-26T12:45:37.807Z,72.44
2019-03-26T12:46:37.837Z,72.34
2019-03-26T12:47:37.903Z,71.87
2019-03-26T12:48:37.901Z,71.87
2019-03-26T12:49:37.940Z,72.82
2019-03-26T12:50:37.959Z,72.16
2019-03-26T12:51:39.394Z,72.06
2019-03-26T12:52:38.027Z,72.72
2019-03-26T12:53:38.055Z,72.44
2019-03-26T12:54:38.082Z,72.53
2019-03-26T12:55:38.114Z,73.39
2019-03-26T12:56:38.143Z,73.21
2019-03-26T12:57:38.173Z,73.01
2019-03-26T12:58:38.206Z,72.63
2019-03-26T12:59:38.234Z,72.44
2019-03-26T13:00:38.269Z,72.34
2019-03-26T13:01:38.297Z,73.11
2019-03-26T13:02:38.329Z,72.25
2019-03-26T13:03:38.358Z,71.87
2019-03-26T13:04:38.390Z,71.77
2019-03-26T13:05:38.423Z,71.96
2019-03-26T13:06:38.450Z,72.06
2019-03-26T13:07:38.479Z,72.41
2019-03-26T13:08:38.511Z,72.21
2019-03-26T13:09:41.669Z,73.45
2019-03-26T13:11:45.767Z,73.55
2019-03-26T13:13:42.646Z,74.50
2019-03-26T13:14:42.656Z,72.34
2019-03-26T13:16:46.684Z,70.25
2019-03-26T13:17:46.709Z,69.81
2019-03-26T13:19:50.736Z,68.95
2019-03-26T13:20:50.768Z,69.04
2019-03-26T13:22:54.790Z,67.80
2019-03-26T13:23:54.816Z,68.28
2019-03-26T13:25:58.845Z,68.28
2019-03-26T13:26:58.872Z,68.76
2019-03-26T13:29:02.900Z,68.91
2019-03-26T13:30:02.930Z,68.72
2019-03-26T13:31:55.878Z,68.82
2019-03-26T13:32:55.904Z,69.14
2019-03-26T13:34:59.931Z,68.95
2019-03-26T13:35:59.963Z,69.04
2019-03-26T13:38:03.995Z,67.23
2019-03-26T13:39:04.014Z,66.85
2019-03-26T13:41:08.043Z,66.78
2019-03-26T13:42:08.071Z,66.69
2019-03-26T13:44:12.104Z,66.69
2019-03-26T13:45:12.125Z,66.60
2019-03-26T13:47:16.160Z,65.55
2019-03-26T13:48:16.183Z,64.88
2019-03-26T13:50:20.224Z,64.78
2019-03-26T13:51:20.238Z,64.21
2019-03-26T13:53:24.266Z,64.37
2019-03-26T13:54:24.291Z,64.94
2019-03-26T13:56:28.321Z,65.33
2019-03-26T13:57:28.414Z,65.52
2019-03-26T13:59:32.386Z,65.67
2019-03-26T14:00:32.409Z,65.58
2019-03-26T14:02:25.363Z,65.96
2019-03-26T14:03:25.385Z,65.48
2019-03-26T14:05:29.409Z,65.36
2019-03-26T14:06:32.356Z,65.45
2019-03-26T14:08:33.469Z,65.45
2019-03-26T14:09:33.495Z,65.64
2019-03-26T14:11:37.527Z,66.02
2019-03-26T14:12:37.552Z,65.36
2019-03-26T14:14:41.576Z,64.87
2019-03-26T14:15:41.603Z,65.32
2019-03-26T14:17:45.645Z,65.80
2019-03-26T14:18:45.662Z,65.80
2019-03-26T14:20:49.685Z,65.61
2019-03-26T14:21:49.711Z,66.75
2019-03-26T14:23:53.739Z,66.75
2019-03-26T14:24:53.766Z,66.56
2019-03-26T14:26:57.786Z,66.66
2019-03-26T14:27:57.816Z,66.75
2019-03-26T14:30:01.842Z,65.83
2019-03-26T14:31:01.865Z,65.64
2019-03-26T14:33:05.894Z,65.55
2019-03-26T14:34:05.919Z,65.64
2019-03-26T14:36:09.949Z,66.11
2019-03-26T14:37:09.976Z,66.59
2019-03-26T14:39:14.002Z,66.15
2019-03-26T14:40:14.029Z,65.67
2019-03-26T14:42:06.977Z,64.34
2019-03-26T14:43:07.002Z,63.39
2019-03-26T14:45:11.029Z,63.57
2019-03-26T14:46:11.054Z,62.94
2019-03-26T14:48:15.097Z,62.94
2019-03-26T14:49:15.105Z,62.65
2019-03-26T14:51:19.134Z,61.22
2019-03-26T14:52:19.159Z,60.65
2019-03-26T14:54:23.184Z,60.46
2019-03-26T14:55:23.209Z,60.36
2019-03-26T14:57:27.233Z,60.75
2019-03-26T14:58:27.262Z,60.27
2019-03-26T15:00:31.289Z,59.79
2019-03-26T15:01:31.316Z,59.60
2019-03-26T15:03:35.397Z,60.08
2019-03-26T15:04:35.366Z,60.84
2019-03-26T15:06:39.398Z,59.92
2019-03-26T15:07:39.423Z,60.02
2019-03-26T15:09:32.602Z,59.53
2019-03-26T15:10:32.606Z,57.92
2019-03-26T15:12:25.558Z,57.92
2019-03-26T15:13:25.586Z,58.29
2019-03-26T15:15:29.620Z,58.58
2019-03-26T15:16:29.648Z,58.39
2019-03-26T15:18:33.673Z,56.67
2019-03-26T15:19:33.701Z,56.77
2019-03-26T15:21:37.735Z,55.46
2019-03-26T15:22:37.761Z,53.53
2019-03-26T15:24:41.804Z,53.14
2019-03-26T15:25:41.831Z,53.33
2019-03-26T15:27:45.862Z,52.19
2019-03-26T15:28:45.886Z,51.52
2019-03-26T15:30:49.910Z,51.81
2019-03-26T15:31:49.939Z,51.14
2019-03-26T15:33:53.969Z,51.68
2019-03-26T15:34:53.990Z,50.83
2019-03-26T15:36:58.041Z,51.68
2019-03-26T15:37:58.052Z,50.92
2019-03-26T15:40:02.081Z,50.54
2019-03-26T15:41:02.107Z,50.35
2019-03-26T15:43:06.133Z,51.78
2019-03-26T15:44:06.164Z,51.78
2019-03-26T15:46:10.194Z,51.81
2019-03-26T15:47:10.223Z,50.54
2019-03-26T15:49:14.248Z,51.33
2019-03-26T15:50:14.278Z,52.00
2019-03-26T15:52:07.227Z,51.90
2019-03-26T15:53:07.251Z,51.71
2019-03-26T15:55:11.277Z,50.85
2019-03-26T15:56:11.303Z,50.28
2019-03-26T15:58:15.333Z,49.99
2019-03-26T15:59:15.358Z,50.54
2019-03-26T16:01:19.387Z,49.68
2019-03-26T16:02:19.415Z,50.45
2019-03-26T16:04:23.439Z,50.83
2019-03-26T16:05:23.469Z,51.02
2019-03-26T16:07:27.493Z,52.26
2019-03-26T16:08:27.521Z,52.07
2019-03-26T16:10:31.548Z,52.73
2019-03-26T16:11:35.941Z,52.64
2019-03-26T16:13:36.060Z,52.64
2019-03-26T16:14:35.627Z,52.55
2019-03-26T16:16:39.663Z,52.64
2019-03-26T16:17:39.686Z,52.64
2019-03-26T16:19:43.713Z,53.56
2019-03-26T16:20:43.738Z,53.28
2019-03-26T16:22:47.787Z,53.28
2019-03-26T16:23:47.794Z,52.90
2019-03-26T16:25:51.820Z,53.28
2019-03-26T16:26:51.850Z,53.38
2019-03-26T16:28:55.887Z,54.43
2019-03-26T16:29:55.898Z,54.43
2019-03-26T16:31:48.850Z,54.43
2019-03-26T16:32:48.875Z,54.24
2019-03-26T16:34:52.917Z,54.59
2019-03-26T16:35:52.926Z,54.61
2019-03-26T16:37:56.058Z,55.38
2019-03-26T16:38:56.072Z,55.26
2019-03-26T16:41:00.527Z,55.35
2019-03-26T16:42:00.122Z,55.63
2019-03-26T16:44:04.163Z,55.54
2019-03-26T16:45:04.173Z,55.44
2019-03-26T16:47:08.205Z,55.54
2019-03-26T16:48:08.229Z,55.83
2019-03-26T16:50:12.279Z,56.59
2019-03-26T16:51:12.305Z,56.40
2019-03-26T16:53:16.358Z,56.02
2019-03-26T16:54:16.359Z,56.68
2019-03-26T16:56:20.383Z,57.16